sensor_id;sensor_type;location;lat;lon;timestamp;pressure;altitude;pressure_sealevel;temperature;humidity
53546;BME280;39432;51.902;10.844;2023-07-30T00:01:04;98794.34;;;19.70;100.00
53546;BME280;39432;51.902;10.844;2023-07-30T00:03:34;98794.59;;;19.98;100.00
53546;BME280;39432;51.902;10.844;2023-07-30T00:06:07;98788.09;;;20.48;100.00
53546;BME280;39432;51.902;10.844;2023-07-30T00:08:37;98797.03;;;20.33;100.00
53546;BME280;39432;51.902;10.844;2023-07-30T00:11:07;98798.06;;;19.74;100.00
53546;BME280;39432;51.902;10.844;2023-07-30T00:13:37;98799.50;;;20.34;100.00
53546;BME280;39432;51.902;10.844;2023-07-30T00:16:07;98798.16;;;20.19;100.00
53546;BME280;39432;51.902;10.844;2023-07-30T00:18:37;98791.91;;;19.68;100.00
53546;BME280;39432;51.902;10.844;2023-07-30T00:21:10;98788.00;;;20.23;100.00
53546;BME280;39432;51.902;10.844;2023-07-30T00:23:40;98786.84;;;20.58;100.00
53546;BME280;39432;51.902;10.844;2023-07-30T00:26:10;98770.97;;;20.70;100.00
53546;BME280;39432;51.902;10.844;2023-07-30T00:28:39;98778.53;;;20.37;100.00
53546;BME280;39432;51.902;10.844;2023-07-30T00:31:09;98774.84;;;20.45;100.00
53546;BME280;39432;51.902;10.844;2023-07-30T00:33:39;98776.00;;;20.89;100.00
53546;BME280;39432;51.902;10.844;2023-07-30T00:36:12;98768.38;;;20.08;100.00
53546;BME280;39432;51.902;10.844;2023-07-30T00:38:42;98784.84;;;20.46;100.00
53546;BME280;39432;51.902;10.844;2023-07-30T00:41:12;98794.84;;;19.13;100.00
53546;BME280;39432;51.902;10.844;2023-07-30T00:43:42;98795.88;;;19.59;100.00
53546;BME280;39432;51.902;10.844;2023-07-30T00:46:12;98802.72;;;19.61;100.00
53546;BME280;39432;51.902;10.844;2023-07-30T00:48:43;98806.53;;;19.48;100.00
53546;BME280;39432;51.902;10.844;2023-07-30T00:51:16;98798.66;;;19.59;100.00
53546;BME280;39432;51.902;10.844;2023-07-30T00:53:46;98813.03;;;19.52;100.00
53546;BME280;39432;51.902;10.844;2023-07-30T00:56:17;98809.97;;;19.74;100.00
53546;BME280;39432;51.902;10.844;2023-07-30T00:58:48;98803.09;;;20.68;100.00
53546;BME280;39432;51.902;10.844;2023-07-30T01:01:19;98799.31;;;21.21;100.00
53546;BME280;39432;51.902;10.844;2023-07-30T01:03:49;98792.34;;;21.15;100.00
53546;BME280;39432;51.902;10.844;2023-07-30T01:06:23;98783.31;;;21.06;100.00
53546;BME280;39432;51.902;10.844;2023-07-30T01:08:53;98793.75;;;21.21;100.00
53546;BME280;39432;51.902;10.844;2023-07-30T01:11:23;98793.63;;;21.42;100.00
53546;BME280;39432;51.902;10.844;2023-07-30T01:13:54;98790.34;;;21.52;100.00
53546;BME280;39432;51.902;10.844;2023-07-30T01:16:25;98794.44;;;21.18;100.00
53546;BME280;39432;51.902;10.844;2023-07-30T01:18:55;98796.84;;;21.20;100.00
53546;BME280;39432;51.902;10.844;2023-07-30T01:21:28;98803.91;;;20.93;100.00
53546;BME280;39432;51.902;10.844;2023-07-30T01:23:58;98806.72;;;21.05;100.00
53546;BME280;39432;51.902;10.844;2023-07-30T01:26:32;98801.53;;;20.46;100.00
53546;BME280;39432;51.902;10.844;2023-07-30T01:29:08;98811.66;;;20.75;100.00
53546;BME280;39432;51.902;10.844;2023-07-30T01:31:40;98820.53;;;20.02;100.00
53546;BME280;39432;51.902;10.844;2023-07-30T01:34:11;98818.72;;;20.39;100.00
53546;BME280;39432;51.902;10.844;2023-07-30T01:36:45;98817.41;;;19.83;100.00
53546;BME280;39432;51.902;10.844;2023-07-30T01:39:15;98834.47;;;19.43;100.00
53546;BME280;39432;51.902;10.844;2023-07-30T01:41:46;98836.66;;;19.67;100.00
53546;BME280;39432;51.902;10.844;2023-07-30T01:44:16;98841.31;;;19.75;100.00
53546;BME280;39432;51.902;10.844;2023-07-30T01:46:46;98846.00;;;20.04;100.00
53546;BME280;39432;51.902;10.844;2023-07-30T01:49:16;98829.50;;;19.28;100.00
53546;BME280;39432;51.902;10.844;2023-07-30T01:51:49;98854.81;;;18.62;100.00
53546;BME280;39432;51.902;10.844;2023-07-30T01:54:19;98855.41;;;19.02;100.00
53546;BME280;39432;51.902;10.844;2023-07-30T01:56:49;98851.81;;;19.02;100.00
53546;BME280;39432;51.902;10.844;2023-07-30T01:59:19;98852.94;;;19.39;100.00
53546;BME280;39432;51.902;10.844;2023-07-30T02:01:49;98844.63;;;19.68;100.00
53546;BME280;39432;51.902;10.844;2023-07-30T02:04:19;98841.25;;;20.05;100.00
53546;BME280;39432;51.902;10.844;2023-07-30T02:06:52;98833.78;;;20.38;100.00
53546;BME280;39432;51.902;10.844;2023-07-30T02:09:22;98832.41;;;19.90;100.00
53546;BME280;39432;51.902;10.844;2023-07-30T02:11:52;98828.38;;;20.21;100.00
53546;BME280;39432;51.902;10.844;2023-07-30T02:14:22;98835.28;;;19.94;100.00
53546;BME280;39432;51.902;10.844;2023-07-30T02:16:53;98832.69;;;20.31;100.00
53546;BME280;39432;51.902;10.844;2023-07-30T02:19:23;98836.78;;;20.12;100.00
53546;BME280;39432;51.902;10.844;2023-07-30T02:21:55;98837.41;;;19.97;100.00
53546;BME280;39432;51.902;10.844;2023-07-30T02:24:27;98840.56;;;20.29;100.00
53546;BME280;39432;51.902;10.844;2023-07-30T02:26:57;98843.03;;;19.67;100.00
53546;BME280;39432;51.902;10.844;2023-07-30T02:29:27;98842.28;;;20.00;100.00
53546;BME280;39432;51.902;10.844;2023-07-30T02:31:58;98843.81;;;20.10;100.00
53546;BME280;39432;51.902;10.844;2023-07-30T02:34:28;98846.06;;;19.74;100.00
53546;BME280;39432;51.902;10.844;2023-07-30T02:37:01;98843.56;;;20.03;100.00
53546;BME280;39432;51.902;10.844;2023-07-30T02:39:31;98841.06;;;20.43;100.00
53546;BME280;39432;51.902;10.844;2023-07-30T02:42:01;98834.31;;;20.32;100.00
53546;BME280;39432;51.902;10.844;2023-07-30T02:44:31;98845.06;;;20.00;100.00
53546;BME280;39432;51.902;10.844;2023-07-30T02:47:01;98853.81;;;19.60;100.00
53546;BME280;39432;51.902;10.844;2023-07-30T02:49:31;98860.03;;;19.87;100.00
53546;BME280;39432;51.902;10.844;2023-07-30T02:52:04;98849.16;;;19.43;100.00
53546;BME280;39432;51.902;10.844;2023-07-30T02:54:34;98861.06;;;19.44;100.00
53546;BME280;39432;51.902;10.844;2023-07-30T02:57:04;98871.47;;;18.53;100.00
53546;BME280;39432;51.902;10.844;2023-07-30T02:59:34;98887.16;;;18.14;100.00
53546;BME280;39432;51.902;10.844;2023-07-30T03:02:06;98891.53;;;18.33;100.00
53546;BME280;39432;51.902;10.844;2023-07-30T03:04:36;98892.03;;;18.52;100.00
53546;BME280;39432;51.902;10.844;2023-07-30T03:07:09;98890.19;;;18.82;100.00
53546;BME280;39432;51.902;10.844;2023-07-30T03:09:39;98894.03;;;19.07;100.00
53546;BME280;39432;51.902;10.844;2023-07-30T03:12:09;98890.66;;;18.93;100.00
53546;BME280;39432;51.902;10.844;2023-07-30T03:14:39;98896.88;;;18.81;100.00
53546;BME280;39432;51.902;10.844;2023-07-30T03:17:09;98894.47;;;18.71;100.00
53546;BME280;39432;51.902;10.844;2023-07-30T03:19:39;98908.19;;;19.23;100.00
53546;BME280;39432;51.902;10.844;2023-07-30T03:22:12;98906.00;;;18.90;100.00
53546;BME280;39432;51.902;10.844;2023-07-30T03:24:42;98905.59;;;19.09;100.00
53546;BME280;39432;51.902;10.844;2023-07-30T03:27:12;98899.34;;;19.30;100.00
53546;BME280;39432;51.902;10.844;2023-07-30T03:29:43;98897.22;;;19.27;100.00
53546;BME280;39432;51.902;10.844;2023-07-30T03:32:13;98895.56;;;18.61;100.00
53546;BME280;39432;51.902;10.844;2023-07-30T03:34:42;98913.03;;;18.27;100.00
53546;BME280;39432;51.902;10.844;2023-07-30T03:37:15;98909.78;;;18.25;100.00
53546;BME280;39432;51.902;10.844;2023-07-30T03:39:45;98923.44;;;18.13;100.00
53546;BME280;39432;51.902;10.844;2023-07-30T03:42:16;98916.63;;;18.54;100.00
53546;BME280;39432;51.902;10.844;2023-07-30T03:44:47;98925.75;;;18.37;100.00
53546;BME280;39432;51.902;10.844;2023-07-30T03:47:17;98913.22;;;18.48;100.00
53546;BME280;39432;51.902;10.844;2023-07-30T03:49:48;98921.84;;;18.38;100.00
53546;BME280;39432;51.902;10.844;2023-07-30T03:52:20;98926.09;;;18.27;100.00
53546;BME280;39432;51.902;10.844;2023-07-30T03:54:50;98922.47;;;18.87;100.00
53546;BME280;39432;51.902;10.844;2023-07-30T03:57:20;98916.94;;;18.35;100.00
53546;BME280;39432;51.902;10.844;2023-07-30T03:59:50;98929.47;;;17.89;100.00
53546;BME280;39432;51.902;10.844;2023-07-30T04:02:20;98928.22;;;18.30;100.00
53546;BME280;39432;51.902;10.844;2023-07-30T04:04:51;98931.78;;;18.22;100.00
53546;BME280;39432;51.902;10.844;2023-07-30T04:07:23;98931.81;;;18.74;100.00
53546;BME280;39432;51.902;10.844;2023-07-30T04:09:53;98938.13;;;18.05;100.00
53546;BME280;39432;51.902;10.844;2023-07-30T04:12:23;98926.22;;;18.91;100.00
53546;BME280;39432;51.902;10.844;2023-07-30T04:14:53;98923.63;;;19.33;100.00
53546;BME280;39432;51.902;10.844;2023-07-30T04:17:23;98921.94;;;19.02;100.00
53546;BME280;39432;51.902;10.844;2023-07-30T04:19:53;98922.44;;;19.51;100.00
53546;BME280;39432;51.902;10.844;2023-07-30T04:22:25;98930.13;;;19.84;100.00
53546;BME280;39432;51.902;10.844;2023-07-30T04:24:56;98918.34;;;20.70;100.00
53546;BME280;39432;51.902;10.844;2023-07-30T04:27:26;98922.81;;;20.42;100.00
53546;BME280;39432;51.902;10.844;2023-07-30T04:29:59;98925.53;;;20.30;100.00
53546;BME280;39432;51.902;10.844;2023-07-30T04:32:29;98927.44;;;19.96;100.00
53546;BME280;39432;51.902;10.844;2023-07-30T04:34:59;98926.09;;;20.44;100.00
53546;BME280;39432;51.902;10.844;2023-07-30T04:37:32;98923.09;;;20.07;100.00
53546;BME280;39432;51.902;10.844;2023-07-30T04:40:03;98925.28;;;21.55;100.00
53546;BME280;39432;51.902;10.844;2023-07-30T04:42:34;98921.50;;;22.37;100.00
53546;BME280;39432;51.902;10.844;2023-07-30T04:45:05;98923.25;;;22.69;100.00
53546;BME280;39432;51.902;10.844;2023-07-30T04:47:38;98923.13;;;22.94;100.00
53546;BME280;39432;51.902;10.844;2023-07-30T04:50:09;98931.97;;;22.27;100.00
53546;BME280;39432;51.902;10.844;2023-07-30T04:52:42;98926.63;;;22.22;100.00
53546;BME280;39432;51.902;10.844;2023-07-30T04:55:12;98927.13;;;22.12;100.00
53546;BME280;39432;51.902;10.844;2023-07-30T04:57:42;98927.34;;;21.58;100.00
53546;BME280;39432;51.902;10.844;2023-07-30T05:00:12;98927.81;;;22.21;100.00
53546;BME280;39432;51.902;10.844;2023-07-30T05:02:43;98922.03;;;22.14;100.00
53546;BME280;39432;51.902;10.844;2023-07-30T05:05:13;98928.50;;;22.06;100.00
53546;BME280;39432;51.902;10.844;2023-07-30T05:07:45;98926.97;;;23.33;100.00
53546;BME280;39432;51.902;10.844;2023-07-30T05:10:15;98915.19;;;22.68;100.00
53546;BME280;39432;51.902;10.844;2023-07-30T05:12:45;98910.81;;;22.95;100.00
53546;BME280;39432;51.902;10.844;2023-07-30T05:15:15;98911.13;;;24.19;100.00
53546;BME280;39432;51.902;10.844;2023-07-30T05:17:45;98903.72;;;24.47;97.61
53546;BME280;39432;51.902;10.844;2023-07-30T05:20:16;98908.19;;;22.18;100.00
53546;BME280;39432;51.902;10.844;2023-07-30T05:22:48;98917.19;;;22.39;100.00
53546;BME280;39432;51.902;10.844;2023-07-30T05:25:18;98916.09;;;22.16;100.00
53546;BME280;39432;51.902;10.844;2023-07-30T05:27:50;98907.16;;;23.22;100.00
53546;BME280;39432;51.902;10.844;2023-07-30T05:30:19;98911.00;;;22.46;100.00
53546;BME280;39432;51.902;10.844;2023-07-30T05:32:49;98909.50;;;22.36;100.00
53546;BME280;39432;51.902;10.844;2023-07-30T05:35:20;98912.34;;;22.52;100.00
53546;BME280;39432;51.902;10.844;2023-07-30T05:37:54;98906.50;;;22.69;100.00
53546;BME280;39432;51.902;10.844;2023-07-30T05:40:24;98909.75;;;22.71;100.00
53546;BME280;39432;51.902;10.844;2023-07-30T05:42:54;98910.63;;;23.63;100.00
53546;BME280;39432;51.902;10.844;2023-07-30T05:45:24;98900.75;;;22.50;100.00
53546;BME280;39432;51.902;10.844;2023-07-30T05:47:54;98901.06;;;22.88;100.00
53546;BME280;39432;51.902;10.844;2023-07-30T05:50:24;98902.00;;;23.56;100.00
53546;BME280;39432;51.902;10.844;2023-07-30T05:52:57;98892.28;;;22.74;100.00
53546;BME280;39432;51.902;10.844;2023-07-30T05:55:27;98891.22;;;22.51;100.00
53546;BME280;39432;51.902;10.844;2023-07-30T05:57:58;98895.00;;;23.46;100.00
53546;BME280;39432;51.902;10.844;2023-07-30T06:00:28;98899.22;;;23.56;100.00
53546;BME280;39432;51.902;10.844;2023-07-30T06:02:58;98896.16;;;23.61;100.00
53546;BME280;39432;51.902;10.844;2023-07-30T06:05:28;98889.78;;;24.31;95.27
53546;BME280;39432;51.902;10.844;2023-07-30T06:08:00;98895.72;;;22.83;99.39
53546;BME280;39432;51.902;10.844;2023-07-30T06:10:34;98901.84;;;23.33;100.00
53546;BME280;39432;51.902;10.844;2023-07-30T06:13:04;98895.16;;;23.06;100.00
53546;BME280;39432;51.902;10.844;2023-07-30T06:15:34;98894.81;;;24.06;96.50
53546;BME280;39432;51.902;10.844;2023-07-30T06:18:04;98905.28;;;24.09;97.46
53546;BME280;39432;51.902;10.844;2023-07-30T06:20:35;98901.41;;;23.47;97.22
53546;BME280;39432;51.902;10.844;2023-07-30T06:23:07;98907.09;;;22.62;98.45
53546;BME280;39432;51.902;10.844;2023-07-30T06:25:37;98913.66;;;21.90;100.00
53546;BME280;39432;51.902;10.844;2023-07-30T06:28:07;98908.56;;;21.79;100.00
53546;BME280;39432;51.902;10.844;2023-07-30T06:30:37;98908.78;;;21.87;100.00
53546;BME280;39432;51.902;10.844;2023-07-30T06:33:07;98909.28;;;21.76;100.00
53546;BME280;39432;51.902;10.844;2023-07-30T06:35:37;98918.31;;;21.61;100.00
53546;BME280;39432;51.902;10.844;2023-07-30T06:38:10;98914.78;;;22.13;100.00
53546;BME280;39432;51.902;10.844;2023-07-30T06:40:40;98908.63;;;22.60;97.63
53546;BME280;39432;51.902;10.844;2023-07-30T06:43:10;98911.91;;;23.06;94.30
53546;BME280;39432;51.902;10.844;2023-07-30T06:45:42;98911.63;;;23.11;89.18
53546;BME280;39432;51.902;10.844;2023-07-30T06:48:12;98908.19;;;23.02;92.31
53546;BME280;39432;51.902;10.844;2023-07-30T06:50:43;98910.41;;;21.88;95.27
53546;BME280;39432;51.902;10.844;2023-07-30T06:53:15;98923.66;;;21.78;100.00
53546;BME280;39432;51.902;10.844;2023-07-30T06:55:45;98929.19;;;22.03;100.00
53546;BME280;39432;51.902;10.844;2023-07-30T06:58:15;98924.59;;;21.82;96.37
53546;BME280;39432;51.902;10.844;2023-07-30T07:00:45;98920.56;;;22.08;98.33
53546;BME280;39432;51.902;10.844;2023-07-30T07:03:15;98931.78;;;21.71;98.23
53546;BME280;39432;51.902;10.844;2023-07-30T07:05:52;98922.72;;;21.74;100.00
53546;BME280;39432;51.902;10.844;2023-07-30T07:08:25;98924.78;;;21.41;98.65
53546;BME280;39432;51.902;10.844;2023-07-30T07:10:55;98919.25;;;21.65;96.63
53546;BME280;39432;51.902;10.844;2023-07-30T07:13:25;98934.34;;;21.19;92.64
53546;BME280;39432;51.902;10.844;2023-07-30T07:15:55;98927.22;;;21.30;92.10
53546;BME280;39432;51.902;10.844;2023-07-30T07:18:25;98928.69;;;21.27;94.00
53546;BME280;39432;51.902;10.844;2023-07-30T07:20:55;98932.59;;;21.14;90.47
53546;BME280;39432;51.902;10.844;2023-07-30T07:23:28;98926.03;;;20.86;93.94
53546;BME280;39432;51.902;10.844;2023-07-30T07:25:58;98924.16;;;21.23;93.03
53546;BME280;39432;51.902;10.844;2023-07-30T07:28:28;98928.88;;;21.43;89.08
53546;BME280;39432;51.902;10.844;2023-07-30T07:30:57;98927.84;;;21.72;87.26
53546;BME280;39432;51.902;10.844;2023-07-30T07:33:28;98927.47;;;21.98;84.79
53546;BME280;39432;51.902;10.844;2023-07-30T07:36:07;98926.16;;;22.08;84.56
53546;BME280;39432;51.902;10.844;2023-07-30T07:38:40;98922.94;;;21.94;84.15
53546;BME280;39432;51.902;10.844;2023-07-30T07:41:14;98933.16;;;21.53;85.80
53546;BME280;39432;51.902;10.844;2023-07-30T07:43:46;98933.63;;;21.67;86.62
53546;BME280;39432;51.902;10.844;2023-07-30T07:46:16;98936.19;;;21.72;86.36
53546;BME280;39432;51.902;10.844;2023-07-30T07:48:46;98933.97;;;22.15;85.23
53546;BME280;39432;51.902;10.844;2023-07-30T07:51:16;98927.13;;;21.63;86.10
53546;BME280;39432;51.902;10.844;2023-07-30T07:53:49;98921.88;;;22.23;87.63
53546;BME280;39432;51.902;10.844;2023-07-30T07:56:19;98921.59;;;22.68;84.16
53546;BME280;39432;51.902;10.844;2023-07-30T07:58:49;98934.28;;;23.37;81.42
53546;BME280;39432;51.902;10.844;2023-07-30T08:01:19;98934.53;;;23.32;76.88
53546;BME280;39432;51.902;10.844;2023-07-30T08:03:49;98938.72;;;22.95;77.67
53546;BME280;39432;51.902;10.844;2023-07-30T08:06:19;98937.59;;;23.59;76.35
53546;BME280;39432;51.902;10.844;2023-07-30T08:08:52;98942.22;;;23.07;76.21
53546;BME280;39432;51.902;10.844;2023-07-30T08:13:52;98941.09;;;22.80;78.69
53546;BME280;39432;51.902;10.844;2023-07-30T08:16:22;98950.69;;;22.95;81.53
53546;BME280;39432;51.902;10.844;2023-07-30T08:18:52;98943.91;;;22.68;81.57
53546;BME280;39432;51.902;10.844;2023-07-30T08:21:22;98936.81;;;22.30;82.67
53546;BME280;39432;51.902;10.844;2023-07-30T08:23:55;98945.69;;;22.20;82.98
53546;BME280;39432;51.902;10.844;2023-07-30T08:26:25;98950.56;;;21.99;84.29
53546;BME280;39432;51.902;10.844;2023-07-30T08:28:55;98939.31;;;22.20;80.60
53546;BME280;39432;51.902;10.844;2023-07-30T08:31:25;98934.22;;;22.78;80.62
53546;BME280;39432;51.902;10.844;2023-07-30T08:33:55;98943.06;;;22.40;78.29
53546;BME280;39432;51.902;10.844;2023-07-30T08:36:25;98939.75;;;22.62;78.10
53546;BME280;39432;51.902;10.844;2023-07-30T08:38:57;98937.44;;;23.52;76.18
53546;BME280;39432;51.902;10.844;2023-07-30T08:41:28;98930.22;;;23.51;75.92
53546;BME280;39432;51.902;10.844;2023-07-30T08:43:58;98944.88;;;22.60;75.69
53546;BME280;39432;51.902;10.844;2023-07-30T08:46:29;98932.56;;;22.89;77.48
53546;BME280;39432;51.902;10.844;2023-07-30T08:48:59;98931.16;;;22.95;74.19
53546;BME280;39432;51.902;10.844;2023-07-30T08:51:29;98933.66;;;22.72;72.28
53546;BME280;39432;51.902;10.844;2023-07-30T08:54:04;98926.88;;;23.13;74.35
53546;BME280;39432;51.902;10.844;2023-07-30T08:56:34;98930.28;;;23.23;74.97
53546;BME280;39432;51.902;10.844;2023-07-30T08:59:05;98923.44;;;22.76;71.01
53546;BME280;39432;51.902;10.844;2023-07-30T09:01:38;98932.66;;;22.65;71.47
53546;BME280;39432;51.902;10.844;2023-07-30T09:04:09;98928.09;;;22.44;72.00
53546;BME280;39432;51.902;10.844;2023-07-30T09:06:39;98926.72;;;22.66;71.63
53546;BME280;39432;51.902;10.844;2023-07-30T09:09:13;98933.50;;;22.93;70.50
53546;BME280;39432;51.902;10.844;2023-07-30T09:11:43;98922.31;;;22.65;70.11
53546;BME280;39432;51.902;10.844;2023-07-30T09:14:13;98928.47;;;22.99;69.34
53546;BME280;39432;51.902;10.844;2023-07-30T09:16:43;98932.88;;;23.00;68.81
53546;BME280;39432;51.902;10.844;2023-07-30T09:19:16;98922.75;;;22.67;67.18
53546;BME280;39432;51.902;10.844;2023-07-30T09:21:46;98930.00;;;22.56;69.82
53546;BME280;39432;51.902;10.844;2023-07-30T09:24:23;98923.31;;;22.45;70.81
53546;BME280;39432;51.902;10.844;2023-07-30T09:26:53;98922.69;;;22.64;70.88
53546;BME280;39432;51.902;10.844;2023-07-30T09:29:24;98924.53;;;22.31;72.29
53546;BME280;39432;51.902;10.844;2023-07-30T09:31:55;98924.81;;;22.14;71.95
53546;BME280;39432;51.902;10.844;2023-07-30T09:34:25;98920.97;;;22.47;72.60
53546;BME280;39432;51.902;10.844;2023-07-30T09:36:57;98925.16;;;22.53;70.74
53546;BME280;39432;51.902;10.844;2023-07-30T09:39:29;98922.50;;;22.72;71.03
53546;BME280;39432;51.902;10.844;2023-07-30T09:42:00;98922.00;;;22.82;71.96
53546;BME280;39432;51.902;10.844;2023-07-30T09:44:32;98920.13;;;22.86;73.84
53546;BME280;39432;51.902;10.844;2023-07-30T09:47:02;98914.75;;;22.94;74.55
53546;BME280;39432;51.902;10.844;2023-07-30T09:49:33;98924.69;;;23.07;75.08
53546;BME280;39432;51.902;10.844;2023-07-30T09:52:04;98917.31;;;23.14;76.00
53546;BME280;39432;51.902;10.844;2023-07-30T09:54:37;98924.28;;;22.37;79.51
53546;BME280;39432;51.902;10.844;2023-07-30T09:57:08;98920.59;;;22.20;83.56
53546;BME280;39432;51.902;10.844;2023-07-30T09:59:38;98924.53;;;22.31;84.85
53546;BME280;39432;51.902;10.844;2023-07-30T10:02:09;98930.09;;;22.31;85.84
53546;BME280;39432;51.902;10.844;2023-07-30T10:04:43;98929.31;;;22.19;86.73
53546;BME280;39432;51.902;10.844;2023-07-30T10:07:19;98934.25;;;22.38;88.20
53546;BME280;39432;51.902;10.844;2023-07-30T10:09:56;98935.03;;;22.50;87.43
53546;BME280;39432;51.902;10.844;2023-07-30T10:12:29;98930.78;;;22.28;87.94
53546;BME280;39432;51.902;10.844;2023-07-30T10:15:01;98937.22;;;22.57;89.49
53546;BME280;39432;51.902;10.844;2023-07-30T10:17:32;98936.63;;;21.99;92.94
53546;BME280;39432;51.902;10.844;2023-07-30T10:20:19;98952.19;;;21.75;97.16
53546;BME280;39432;51.902;10.844;2023-07-30T10:22:54;98941.53;;;21.65;99.18
53546;BME280;39432;51.902;10.844;2023-07-30T10:25:30;98957.16;;;21.57;100.00
53546;BME280;39432;51.902;10.844;2023-07-30T10:28:00;98955.38;;;21.28;100.00
53546;BME280;39432;51.902;10.844;2023-07-30T10:30:32;98956.00;;;21.34;100.00
53546;BME280;39432;51.902;10.844;2023-07-30T10:33:03;98960.53;;;21.39;100.00
53546;BME280;39432;51.902;10.844;2023-07-30T10:35:41;98960.94;;;21.28;100.00
53546;BME280;39432;51.902;10.844;2023-07-30T10:38:18;98962.31;;;21.22;100.00
53546;BME280;39432;51.902;10.844;2023-07-30T10:41:05;98963.25;;;21.26;100.00
53546;BME280;39432;51.902;10.844;2023-07-30T10:43:36;98976.00;;;21.15;100.00
53546;BME280;39432;51.902;10.844;2023-07-30T10:46:07;98977.19;;;20.93;100.00
53546;BME280;39432;51.902;10.844;2023-07-30T10:48:40;98980.56;;;20.99;100.00
53546;BME280;39432;51.902;10.844;2023-07-30T10:51:11;98986.03;;;20.74;100.00
53546;BME280;39432;51.902;10.844;2023-07-30T10:53:42;98980.72;;;20.82;100.00
53546;BME280;39432;51.902;10.844;2023-07-30T10:56:16;98986.13;;;20.99;100.00
53546;BME280;39432;51.902;10.844;2023-07-30T10:58:49;98977.03;;;21.23;100.00
53546;BME280;39432;51.902;10.844;2023-07-30T11:01:24;98972.72;;;20.80;100.00
53546;BME280;39432;51.902;10.844;2023-07-30T11:03:54;98981.81;;;20.68;100.00
53546;BME280;39432;51.902;10.844;2023-07-30T11:06:25;98983.28;;;20.45;100.00
53546;BME280;39432;51.902;10.844;2023-07-30T11:08:56;98981.97;;;20.72;100.00
53546;BME280;39432;51.902;10.844;2023-07-30T11:11:29;98980.19;;;20.67;100.00
53546;BME280;39432;51.902;10.844;2023-07-30T11:13:59;98988.47;;;20.55;100.00
53546;BME280;39432;51.902;10.844;2023-07-30T11:16:31;98980.81;;;20.52;100.00
53546;BME280;39432;51.902;10.844;2023-07-30T11:19:07;98997.50;;;20.22;100.00
53546;BME280;39432;51.902;10.844;2023-07-30T11:21:44;98996.41;;;20.15;100.00
53546;BME280;39432;51.902;10.844;2023-07-30T11:24:17;98996.56;;;20.18;100.00
53546;BME280;39432;51.902;10.844;2023-07-30T11:26:59;99000.16;;;20.40;100.00
53546;BME280;39432;51.902;10.844;2023-07-30T11:29:29;99003.25;;;20.47;100.00
53546;BME280;39432;51.902;10.844;2023-07-30T11:32:00;99005.63;;;20.07;100.00
53546;BME280;39432;51.902;10.844;2023-07-30T11:34:30;99013.50;;;19.96;100.00
53546;BME280;39432;51.902;10.844;2023-07-30T11:37:06;99017.25;;;20.00;100.00
53546;BME280;39432;51.902;10.844;2023-07-30T11:39:36;99024.19;;;19.77;100.00
53546;BME280;39432;51.902;10.844;2023-07-30T11:42:13;99033.06;;;19.61;100.00
53546;BME280;39432;51.902;10.844;2023-07-30T11:44:43;99019.03;;;19.49;100.00
53546;BME280;39432;51.902;10.844;2023-07-30T11:47:20;99032.50;;;19.30;100.00
53546;BME280;39432;51.902;10.844;2023-07-30T11:49:59;99033.47;;;19.16;100.00
53546;BME280;39432;51.902;10.844;2023-07-30T11:52:30;99027.94;;;19.25;100.00
53546;BME280;39432;51.902;10.844;2023-07-30T11:55:01;99036.03;;;19.39;100.00
53546;BME280;39432;51.902;10.844;2023-07-30T11:57:36;99036.22;;;19.42;100.00
53546;BME280;39432;51.902;10.844;2023-07-30T12:00:08;99033.72;;;19.58;100.00
53546;BME280;39432;51.902;10.844;2023-07-30T12:02:38;99042.53;;;19.69;100.00
53546;BME280;39432;51.902;10.844;2023-07-30T12:05:10;99055.00;;;19.37;100.00
53546;BME280;39432;51.902;10.844;2023-07-30T12:07:41;99058.47;;;19.08;100.00
53546;BME280;39432;51.902;10.844;2023-07-30T12:10:12;99072.78;;;18.66;100.00
53546;BME280;39432;51.902;10.844;2023-07-30T12:12:51;99082.69;;;18.50;100.00
53546;BME280;39432;51.902;10.844;2023-07-30T12:15:21;99098.84;;;18.48;100.00
53546;BME280;39432;51.902;10.844;2023-07-30T12:17:51;99097.69;;;18.49;100.00
53546;BME280;39432;51.902;10.844;2023-07-30T12:20:21;99093.81;;;18.67;100.00
53546;BME280;39432;51.902;10.844;2023-07-30T12:22:51;99096.09;;;18.65;100.00
53546;BME280;39432;51.902;10.844;2023-07-30T12:25:21;99076.66;;;18.48;100.00
53546;BME280;39432;51.902;10.844;2023-07-30T12:27:54;99075.44;;;18.80;100.00
53546;BME280;39432;51.902;10.844;2023-07-30T12:30:24;99062.66;;;18.53;100.00
53546;BME280;39432;51.902;10.844;2023-07-30T12:32:54;99047.00;;;18.49;100.00
53546;BME280;39432;51.902;10.844;2023-07-30T12:35:28;99051.63;;;18.79;100.00
53546;BME280;39432;51.902;10.844;2023-07-30T12:37:58;99043.09;;;18.58;100.00
53546;BME280;39432;51.902;10.844;2023-07-30T12:40:31;99030.28;;;18.80;100.00
53546;BME280;39432;51.902;10.844;2023-07-30T12:43:04;99021.44;;;19.12;100.00
53546;BME280;39432;51.902;10.844;2023-07-30T12:45:36;99020.16;;;19.01;100.00
53546;BME280;39432;51.902;10.844;2023-07-30T12:48:06;99017.66;;;19.26;100.00
53546;BME280;39432;51.902;10.844;2023-07-30T12:50:37;99014.25;;;19.11;100.00
53546;BME280;39432;51.902;10.844;2023-07-30T12:53:07;99009.06;;;19.01;100.00
53546;BME280;39432;51.902;10.844;2023-07-30T12:55:37;99013.88;;;19.30;100.00
53546;BME280;39432;51.902;10.844;2023-07-30T12:58:10;99011.25;;;19.34;100.00
53546;BME280;39432;51.902;10.844;2023-07-30T13:00:40;99012.16;;;19.55;100.00
53546;BME280;39432;51.902;10.844;2023-07-30T13:03:10;99009.72;;;19.54;100.00
53546;BME280;39432;51.902;10.844;2023-07-30T13:05:40;99005.34;;;19.53;100.00